Time;durP1;ratioP1;P1;durP2;ratioP2;P2;SDS_P1;SDS_P2;PMS_P1;PMS_P2;Temp;Humidity;BMP_temperature;BMP_pressure;BME280_temperature;BME280_humidity;BME280_pressure;Samples;Min_cycle;Max_cycle;Signal;HPM_P1;HPM_P2
2021/03/30 00:00:31;;;;;;;7.73;2.00;;;;;;;5.17;79.96;95236.06;5095572;28;20207;-77
2021/03/30 00:02:57;;;;;;;5.77;2.10;;;;;;;5.22;80.25;95225.31;5095518;28;20210;-76
2021/03/30 00:05:23;;;;;;;3.57;1.80;;;;;;;5.18;80.66;95224.78;5095354;28;20194;-76
2021/03/30 00:07:49;;;;;;;2.50;1.80;;;;;;;5.12;81.03;95226.09;5095169;28;20198;-76
2021/03/30 00:10:22;;;;;;;2.30;1.57;;;;;;;5.02;81.35;95219.25;5095134;28;20229;-78
2021/03/30 00:12:49;;;;;;;3.27;1.80;;;;;;;4.96;81.28;95223.16;5095343;28;20312;-76
2021/03/30 00:15:18;;;;;;;6.73;1.87;;;;;;;5.02;82.07;95220.06;5095240;28;20252;-76
2021/03/30 00:17:44;;;;;;;2.93;1.80;;;;;;;4.99;81.57;95215.97;5095094;28;20239;-78
2021/03/30 00:20:31;;;;;;;3.40;1.60;;;;;;;4.97;81.54;95217.06;5094773;28;20230;-76
2021/03/30 00:22:57;;;;;;;6.57;1.93;;;;;;;5.01;81.58;95213.25;5094820;28;20648;-77
2021/03/30 00:25:25;;;;;;;8.97;2.27;;;;;;;5.02;81.53;95214.91;5095009;28;20201;-77
2021/03/30 00:27:55;;;;;;;3.77;1.77;;;;;;;5.10;81.05;95212.47;5094742;28;20680;-76
2021/03/30 00:30:23;;;;;;;6.83;1.50;;;;;;;5.09;81.44;95205.66;5094736;28;20627;-76
2021/03/30 00:32:52;;;;;;;6.87;2.10;;;;;;;5.08;81.13;95206.63;5094669;28;20253;-76
2021/03/30 00:35:19;;;;;;;4.97;2.00;;;;;;;5.03;81.17;95203.59;5094502;28;20292;-76
2021/03/30 00:37:45;;;;;;;5.13;1.83;;;;;;;4.95;80.97;95204.25;5094683;28;20210;-76
2021/03/30 00:40:12;;;;;;;6.18;1.80;;;;;;;4.97;81.37;95202.34;5094275;28;20444;-77
2021/03/30 00:42:39;;;;;;;6.83;1.63;;;;;;;5.01;80.07;95200.31;5094449;28;20556;-76
2021/03/30 00:45:10;;;;;;;2.43;1.57;;;;;;;5.04;79.90;95200.03;5094402;28;20198;-76
2021/03/30 00:47:38;;;;;;;2.33;1.50;;;;;;;4.92;80.23;95203.69;5094388;28;20208;-76
2021/03/30 00:50:10;;;;;;;4.37;1.63;;;;;;;4.77;81.08;95204.03;5094193;28;20198;-78
2021/03/30 00:52:45;;;;;;;7.73;2.00;;;;;;;4.81;81.51;95202.00;5094338;28;20261;-76
2021/03/30 00:55:15;;;;;;;2.77;1.50;;;;;;;4.82;81.39;95199.28;5094433;28;20197;-76
2021/03/30 00:57:49;;;;;;;2.60;1.80;;;;;;;4.91;80.94;95197.69;5094191;28;20213;-76
2021/03/30 01:00:17;;;;;;;3.03;1.63;;;;;;;5.06;80.93;95199.91;5094130;28;20201;-77
2021/03/30 01:02:43;;;;;;;2.60;1.80;;;;;;;5.14;80.23;95197.50;5094006;28;20687;-76
2021/03/30 01:05:11;;;;;;;2.50;1.67;;;;;;;5.04;80.65;95197.47;5094279;28;20194;-76
2021/03/30 01:07:43;;;;;;;3.57;2.00;;;;;;;4.96;81.07;95194.69;5094129;28;20198;-76
2021/03/30 01:10:24;;;;;;;6.77;1.90;;;;;;;4.90;81.42;95195.25;5093691;28;20227;-76
2021/03/30 01:13:05;;;;;;;3.30;2.00;;;;;;;4.90;81.87;95192.66;5073602;28;20601;-76
2021/03/30 01:15:37;;;;;;;3.83;2.05;;;;;;;4.94;81.69;95187.06;5072764;28;20438;-78
2021/03/30 01:18:11;;;;;;;6.07;1.90;;;;;;;5.02;79.65;95188.19;5073668;28;20280;-76
2021/03/30 01:21:02;;;;;;;5.20;1.60;;;;;;;5.00;80.30;95190.91;5072867;28;20227;-77
2021/03/30 01:23:57;;;;;;;2.77;2.07;;;;;;;5.12;80.33;95184.69;5073523;28;20202;-76
2021/03/30 01:26:39;;;;;;;7.63;2.30;;;;;;;5.13;80.47;95183.75;5072000;28;20795;-77
2021/03/30 01:29:25;;;;;;;6.20;2.20;;;;;;;5.00;81.20;95181.38;5073442;28;20207;-77
2021/03/30 01:31:57;;;;;;;5.80;2.07;;;;;;;4.97;80.78;95180.81;5073284;28;20695;-77
2021/03/30 01:34:29;;;;;;;3.80;2.23;;;;;;;5.08;80.09;95183.31;5073500;28;20206;-77
2021/03/30 01:36:59;;;;;;;3.50;1.93;;;;;;;4.93;79.23;95184.59;5073449;28;20203;-77
2021/03/30 01:39:28;;;;;;;5.97;2.93;;;;;;;4.85;80.20;95182.69;5073278;28;20203;-77
2021/03/30 01:41:57;;;;;;;6.70;2.50;;;;;;;5.05;80.01;95188.75;5073293;28;20610;-77
2021/03/30 01:44:26;;;;;;;8.57;2.70;;;;;;;5.13;80.42;95180.31;5073100;28;20203;-77
2021/03/30 01:46:55;;;;;;;7.87;2.33;;;;;;;5.00;81.39;95186.56;5073081;28;20733;-77
2021/03/30 01:49:30;;;;;;;7.07;2.07;;;;;;;4.84;82.11;95185.41;5073243;28;20647;-77
2021/03/30 01:52:03;;;;;;;5.00;2.40;;;;;;;4.93;80.83;95182.03;5073089;28;20714;-76
2021/03/30 01:54:29;;;;;;;5.57;2.33;;;;;;;4.85;82.62;95182.69;5073158;28;20198;-76
2021/03/30 01:56:59;;;;;;;4.83;2.70;;;;;;;4.90;83.52;95184.91;5073159;28;20206;-77
2021/03/30 01:59:29;;;;;;;8.48;2.42;;;;;;;4.76;83.66;95189.47;5072534;28;20438;-77
2021/03/30 02:02:01;;;;;;;6.43;2.90;;;;;;;4.72;84.46;95172.56;5073057;28;20195;-77
2021/03/30 02:04:29;;;;;;;7.17;2.20;;;;;;;4.88;84.68;95186.78;5072846;28;20676;-77
2021/03/30 02:06:58;;;;;;;6.23;2.37;;;;;;;4.85;84.25;95179.28;5072831;28;20285;-76
2021/03/30 02:09:28;;;;;;;5.27;2.17;;;;;;;4.68;85.15;95184.13;5072814;28;20669;-76
2021/03/30 02:12:11;;;;;;;5.37;2.37;;;;;;;4.37;86.41;95186.66;5072953;28;20229;-76
2021/03/30 02:14:46;;;;;;;6.13;2.17;;;;;;;4.19;87.28;95177.84;5072937;28;20194;-76
2021/03/30 02:17:22;;;;;;;5.57;2.23;;;;;;;4.23;86.98;95186.97;5072798;28;20202;-75
2021/03/30 02:19:58;;;;;;;6.47;2.50;;;;;;;4.14;87.51;95187.75;5072458;28;20231;-76
2021/03/30 02:22:27;;;;;;;3.33;2.30;;;;;;;4.21;86.98;95189.72;5072884;28;20213;-77
2021/03/30 02:24:54;;;;;;;7.70;2.47;;;;;;;4.40;87.00;95183.84;5072658;28;20561;-77
2021/03/30 02:27:23;;;;;;;5.37;2.20;;;;;;;4.50;85.67;95183.09;5072728;28;20562;-77
2021/03/30 02:29:52;;;;;;;6.27;1.83;;;;;;;4.47;85.95;95180.75;5072713;28;20234;-76
2021/03/30 02:32:21;;;;;;;5.53;2.83;;;;;;;4.48;86.42;95175.44;5074717;28;20236;-76
2021/03/30 02:34:50;;;;;;;5.03;2.33;;;;;;;4.50;85.93;95177.91;5076940;28;20194;-77
2021/03/30 02:37:22;;;;;;;7.00;2.57;;;;;;;4.61;86.27;95181.22;5076815;28;20195;-76
2021/03/30 02:39:49;;;;;;;4.33;1.93;;;;;;;4.68;85.54;95170.34;5076620;28;20205;-76
2021/03/30 02:42:16;;;;;;;4.83;2.37;;;;;;;4.76;85.28;95166.19;5076493;28;20210;-77
2021/03/30 02:44:50;;;;;;;4.73;2.30;;;;;;;4.72;85.74;95171.75;5076418;28;20199;-77
2021/03/30 02:47:19;;;;;;;6.20;2.80;;;;;;;4.57;86.58;95174.66;5076764;28;20207;-76
2021/03/30 02:49:46;;;;;;;4.80;2.27;;;;;;;4.60;87.30;95165.84;5076406;28;20658;-76
2021/03/30 02:52:13;;;;;;;10.77;2.50;;;;;;;4.62;86.51;95169.09;5076453;28;20648;-77
2021/03/30 02:54:39;;;;;;;9.80;2.67;;;;;;;4.63;86.73;95168.16;5076538;28;20202;-77
2021/03/30 02:57:07;;;;;;;5.83;2.27;;;;;;;4.31;88.39;95166.47;5076175;28;20198;-76
2021/03/30 02:59:34;;;;;;;4.40;2.50;;;;;;;4.21;89.95;95168.19;5076497;28;20538;-76
2021/03/30 03:02:01;;;;;;;5.73;2.93;;;;;;;4.24;89.35;95167.94;5076358;28;20203;-77
2021/03/30 03:04:29;;;;;;;6.87;2.53;;;;;;;4.41;88.55;95169.97;5076216;28;20557;-76
2021/03/30 03:06:56;;;;;;;6.43;2.30;;;;;;;4.63;86.50;95174.16;5081080;28;20206;-76
2021/03/30 03:09:24;;;;;;;4.57;2.10;;;;;;;4.69;86.27;95175.41;5096350;28;20205;-76
2021/03/30 03:11:51;;;;;;;6.03;2.73;;;;;;;4.78;84.57;95172.03;5096302;28;20213;-77
2021/03/30 03:14:20;;;;;;;8.60;3.00;;;;;;;4.85;84.66;95177.50;5096366;28;20230;-76
2021/03/30 03:16:47;;;;;;;4.13;2.50;;;;;;;4.92;84.17;95168.28;5096154;28;20665;-77
2021/03/30 03:19:14;;;;;;;7.80;2.43;;;;;;;4.78;84.85;95172.03;5096102;28;20229;-78
2021/03/30 03:21:44;;;;;;;4.57;2.60;;;;;;;4.41;88.13;95172.56;5096311;28;20202;-76
2021/03/30 03:24:12;;;;;;;4.80;2.70;;;;;;;4.20;88.51;95176.91;5096053;28;20201;-77
2021/03/30 03:26:38;;;;;;;4.20;2.53;;;;;;;4.14;88.56;95178.22;5095810;28;20206;-77
2021/03/30 03:29:13;;;;;;;7.73;2.70;;;;;;;4.36;87.26;95177.25;5095862;28;20677;-76
2021/03/30 03:31:40;;;;;;;5.63;2.90;;;;;;;4.35;87.20;95175.63;5096080;28;20227;-76
2021/03/30 03:34:06;;;;;;;4.17;2.70;;;;;;;4.28;87.18;95173.69;5095908;28;20241;-77
2021/03/30 03:36:37;;;;;;;5.60;2.50;;;;;;;4.43;86.71;95177.59;5095777;28;20212;-76
2021/03/30 03:39:06;;;;;;;7.33;2.83;;;;;;;4.19;87.60;95180.44;5096052;28;20205;-76
2021/03/30 03:41:33;;;;;;;9.10;2.83;;;;;;;4.12;88.69;95176.72;5095848;28;20202;-75
2021/03/30 03:43:59;;;;;;;7.33;3.60;;;;;;;4.00;90.36;95179.34;5095256;28;20202;-76
2021/03/30 03:46:25;;;;;;;5.87;2.67;;;;;;;3.95;89.94;95181.50;5095783;28;20204;-76
2021/03/30 03:48:51;;;;;;;7.07;2.37;;;;;;;3.89;90.96;95179.41;5095557;28;20560;-76
2021/03/30 03:51:18;;;;;;;5.63;2.87;;;;;;;3.82;91.37;95180.84;5095471;28;20288;-76
2021/03/30 03:53:45;;;;;;;6.43;2.93;;;;;;;3.60;92.88;95182.59;5095702;28;20230;-76
2021/03/30 03:56:16;;;;;;;5.07;2.70;;;;;;;3.43;93.95;95196.84;5095665;28;20208;-76
2021/03/30 03:58:46;;;;;;;5.90;2.80;;;;;;;3.53;93.01;95189.19;5095588;28;20212;-76
2021/03/30 04:01:16;;;;;;;3.93;2.73;;;;;;;3.51;92.61;95191.03;5095483;28;20198;-77
2021/03/30 04:03:49;;;;;;;6.77;2.90;;;;;;;3.62;92.43;95193.59;5095301;28;20656;-77
2021/03/30 04:06:17;;;;;;;7.83;2.70;;;;;;;3.66;93.02;95195.00;5095520;28;20222;-75
2021/03/30 04:08:47;;;;;;;6.17;2.70;;;;;;;3.79;92.70;95194.00;5095359;28;20198;-76
2021/03/30 04:11:16;;;;;;;6.57;3.20;;;;;;;3.99;91.41;95185.47;5095319;28;20209;-76
2021/03/30 04:13:44;;;;;;;7.77;3.57;;;;;;;4.19;89.52;95190.78;5095177;28;20236;-76
2021/03/30 04:16:11;;;;;;;7.23;2.80;;;;;;;4.26;89.00;95186.72;5095046;28;20194;-76
2021/03/30 04:18:40;;;;;;;5.23;2.40;;;;;;;4.22;88.25;95190.53;5095012;28;20276;-76
2021/03/30 04:21:10;;;;;;;5.33;2.50;;;;;;;4.23;88.85;95187.81;5094849;28;20234;-76
2021/03/30 04:23:42;;;;;;;6.73;3.07;;;;;;;4.14;89.50;95192.91;5095168;28;20259;-78
2021/03/30 04:26:08;;;;;;;13.50;3.00;;;;;;;4.14;89.75;95187.75;5094917;28;20198;-77
2021/03/30 04:28:35;;;;;;;5.80;3.10;;;;;;;4.16;89.53;95191.81;5094810;28;20285;-77
2021/03/30 04:31:01;;;;;;;6.77;2.90;;;;;;;4.06;89.48;95185.78;5094718;28;20599;-76
2021/03/30 04:33:27;;;;;;;4.57;2.53;;;;;;;4.15;89.79;95189.41;5094883;28;20226;-76
2021/03/30 04:35:53;;;;;;;5.53;2.40;;;;;;;4.03;89.39;95186.03;5094678;28;20251;-77
2021/03/30 04:38:19;;;;;;;5.70;2.83;;;;;;;3.99;89.66;95190.63;5094756;28;20198;-77
2021/03/30 04:40:50;;;;;;;3.27;1.97;;;;;;;4.06;88.68;95189.19;5094588;28;20209;-77
2021/03/30 04:43:16;;;;;;;9.03;2.60;;;;;;;3.81;90.14;95186.94;5094578;28;20644;-77
2021/03/30 04:45:43;;;;;;;7.53;2.07;;;;;;;3.60;91.04;95192.09;5094681;28;20225;-77
2021/03/30 04:48:09;;;;;;;7.97;2.47;;;;;;;3.64;90.84;95189.13;5094657;28;20206;-77
2021/03/30 04:50:35;;;;;;;12.17;2.50;;;;;;;3.61;90.92;95186.78;5094563;28;20198;-78
2021/03/30 04:53:01;;;;;;;8.57;2.60;;;;;;;3.54;91.07;95195.97;5094269;28;20268;-78
2021/03/30 04:55:27;;;;;;;6.93;2.77;;;;;;;3.51;90.86;95191.88;5093458;28;20255;-77
2021/03/30 04:57:53;;;;;;;19.05;3.05;;;;;;;3.54;90.82;95195.97;5093647;28;20428;-77
2021/03/30 05:00:20;;;;;;;5.97;2.20;;;;;;;3.61;91.57;95193.72;5094397;28;20209;-76
2021/03/30 05:02:47;;;;;;;9.10;2.43;;;;;;;3.76;89.23;95199.41;5094365;28;20202;-76
2021/03/30 05:05:13;;;;;;;3.23;2.17;;;;;;;3.80;89.14;95204.22;5094150;28;20201;-77
2021/03/30 05:07:40;;;;;;;12.83;2.40;;;;;;;3.77;89.60;95207.06;5094064;28;20665;-76
2021/03/30 05:10:07;;;;;;;9.20;2.57;;;;;;;3.72;90.05;95208.38;5094064;28;20194;-76
2021/03/30 05:12:33;;;;;;;5.00;1.90;;;;;;;3.68;89.27;95206.03;5093719;28;20228;-78
2021/03/30 05:14:59;;;;;;;12.43;2.30;;;;;;;3.70;88.09;95201.56;5093367;28;20645;-76
2021/03/30 05:17:25;;;;;;;4.20;2.50;;;;;;;3.81;87.75;95203.25;5093839;28;20656;-76
2021/03/30 05:19:52;;;;;;;9.23;2.40;;;;;;;3.88;87.16;95203.59;5093645;28;20287;-76
2021/03/30 05:22:18;;;;;;;6.57;2.43;;;;;;;3.97;86.78;95197.69;5093743;28;20202;-76
2021/03/30 05:24:44;;;;;;;2.83;2.10;;;;;;;4.14;86.41;95200.66;5093898;28;20205;-76
2021/03/30 05:27:10;;;;;;;5.67;1.73;;;;;;;3.90;86.70;95199.13;5093630;28;20246;-76
2021/03/30 05:29:43;;;;;;;5.67;2.27;;;;;;;3.85;87.58;95203.84;5093892;28;20293;-76
2021/03/30 05:32:09;;;;;;;5.53;1.80;;;;;;;3.89;86.76;95200.88;5093763;28;20262;-78
2021/03/30 05:34:35;;;;;;;4.23;2.20;;;;;;;4.18;84.78;95199.47;5093536;28;20201;-77
2021/03/30 05:37:03;;;;;;;4.03;2.20;;;;;;;4.35;83.65;95196.31;5093647;28;20205;-76
2021/03/30 05:39:29;;;;;;;3.83;2.07;;;;;;;4.52;82.48;95201.88;5093508;28;20564;-76
2021/03/30 05:41:55;;;;;;;4.60;1.97;;;;;;;4.50;82.40;95198.59;5093690;28;20197;-76
2021/03/30 05:44:21;;;;;;;5.80;1.90;;;;;;;4.46;83.68;95203.19;5093669;28;20212;-76
2021/03/30 05:46:57;;;;;;;3.57;2.00;;;;;;;4.55;83.08;95196.44;5093583;28;20198;-76
2021/03/30 05:49:24;;;;;;;4.57;1.63;;;;;;;4.61;81.50;95198.50;5093342;28;20594;-77
2021/03/30 05:51:50;;;;;;;10.10;2.00;;;;;;;4.69;80.25;95203.84;5093343;28;20289;-77
2021/03/30 05:54:19;;;;;;;5.10;2.30;;;;;;;4.80;80.19;95196.00;5092214;28;20515;-76
2021/03/30 05:56:46;;;;;;;6.47;3.20;;;;;;;4.92;79.61;95198.50;5093425;28;20200;-76
2021/03/30 05:59:13;;;;;;;6.37;1.80;;;;;;;4.93;79.46;95200.13;5093276;28;20202;-75
2021/03/30 06:01:40;;;;;;;6.53;1.63;;;;;;;5.03;79.04;95198.44;5093271;28;20225;-76
2021/03/30 06:04:09;;;;;;;6.87;1.80;;;;;;;5.15;78.49;95194.78;5093234;28;20231;-78
2021/03/30 06:06:36;;;;;;;6.77;2.13;;;;;;;5.24;78.39;95202.72;5092793;28;20247;-78
2021/03/30 06:09:04;;;;;;;5.83;2.67;;;;;;;5.35;78.94;95205.19;5093028;28;20595;-76
2021/03/30 06:11:31;;;;;;;4.27;1.77;;;;;;;5.60;75.24;95205.66;5093183;28;20202;-77
2021/03/30 06:13:58;;;;;;;6.07;2.30;;;;;;;5.71;75.36;95205.50;5093054;28;20233;-76
2021/03/30 06:16:31;;;;;;;4.93;1.83;;;;;;;5.75;76.91;95201.72;5093066;28;20225;-76
2021/03/30 06:19:06;;;;;;;3.97;1.90;;;;;;;5.76;76.97;95208.50;5092981;28;20194;-76
2021/03/30 06:21:32;;;;;;;7.33;2.20;;;;;;;5.71;78.66;95210.69;5092965;28;20691;-76
2021/03/30 06:23:59;;;;;;;3.83;1.90;;;;;;;5.61;79.96;95209.88;5093097;28;20271;-76
2021/03/30 06:26:26;;;;;;;5.17;1.73;;;;;;;5.54;79.89;95204.41;5093038;28;20201;-75
2021/03/30 06:28:53;;;;;;;7.07;2.00;;;;;;;5.76;78.46;95208.50;5092829;28;20546;-76
2021/03/30 06:31:20;;;;;;;6.07;1.57;;;;;;;5.99;77.29;95213.47;5092897;28;20624;-75
2021/03/30 06:33:49;;;;;;;5.40;2.03;;;;;;;6.17;78.28;95206.66;5092665;28;20225;-76
2021/03/30 06:36:17;;;;;;;4.43;2.00;;;;;;;6.42;78.14;95207.84;5093036;28;20209;-76
2021/03/30 06:38:55;;;;;;;7.63;2.07;;;;;;;6.60;78.22;95210.56;5092923;28;20233;-77
2021/03/30 06:41:37;;;;;;;3.77;1.80;;;;;;;6.53;78.68;95217.25;5092987;28;20370;-77
2021/03/30 06:44:25;;;;;;;8.57;1.80;;;;;;;6.50;79.18;95211.53;5092683;28;20698;-77
2021/03/30 06:46:54;;;;;;;3.03;1.90;;;;;;;6.43;80.18;95206.09;5092960;28;20208;-78
2021/03/30 06:49:21;;;;;;;3.73;1.87;;;;;;;6.44;80.58;95208.53;5092883;28;20206;-78
2021/03/30 06:51:47;;;;;;;4.60;1.50;;;;;;;6.70;79.06;95204.53;5092710;28;20201;-78
2021/03/30 06:54:14;;;;;;;5.73;1.90;;;;;;;6.89;78.65;95204.44;5092678;28;20226;-76
2021/03/30 06:56:48;;;;;;;5.43;1.40;;;;;;;7.10;78.32;95208.63;5092466;28;20198;-77
2021/03/30 06:59:15;;;;;;;3.80;1.67;;;;;;;7.15;78.91;95199.44;5092882;28;20276;-77
2021/03/30 07:01:42;;;;;;;2.57;1.33;;;;;;;7.21;78.18;95205.81;5092765;28;20289;-76
2021/03/30 07:04:10;;;;;;;8.37;1.40;;;;;;;7.48;78.44;95202.41;5092691;28;20293;-78
2021/03/30 07:06:37;;;;;;;3.37;1.70;;;;;;;7.74;73.62;95199.94;5092263;28;20281;-77
2021/03/30 07:09:04;;;;;;;1.47;1.10;;;;;;;8.02;73.37;95202.44;5092432;28;20202;-77
2021/03/30 07:11:32;;;;;;;2.17;1.40;;;;;;;8.34;74.75;95193.28;5092524;28;20244;-76
2021/03/30 07:13:58;;;;;;;3.42;1.30;;;;;;;8.68;72.84;95197.78;5092124;28;20461;-78
2021/03/30 07:16:29;;;;;;;4.07;1.37;;;;;;;8.97;67.57;95197.44;5092418;28;20233;-76
2021/03/30 07:18:59;;;;;;;1.90;1.00;;;;;;;9.24;65.31;95201.66;5095428;28;20202;-77
2021/03/30 07:21:27;;;;;;;2.13;1.40;;;;;;;9.45;63.31;95205.66;5095964;28;20712;-77
2021/03/30 07:23:56;;;;;;;3.50;1.17;;;;;;;9.66;62.28;95202.63;5096088;28;20194;-76
2021/03/30 07:26:25;;;;;;;1.87;1.03;;;;;;;9.87;60.05;95194.34;5096272;28;20198;-78
2021/03/30 07:29:06;;;;;;;2.70;1.23;;;;;;;10.09;58.62;95189.47;5096221;28;20331;-78
2021/03/30 07:31:37;;;;;;;2.10;1.17;;;;;;;10.34;60.75;95187.72;5096117;28;20580;-78
2021/03/30 07:34:09;;;;;;;3.03;1.40;;;;;;;10.55;58.78;95190.63;5095919;28;20230;-78
2021/03/30 07:36:43;;;;;;;5.53;1.37;;;;;;;11.03;58.19;95187.28;5096209;28;20213;-76
2021/03/30 07:39:10;;;;;;;4.90;1.63;;;;;;;11.19;58.87;95186.41;5095892;28;20193;-76
2021/03/30 07:41:39;;;;;;;6.57;1.83;;;;;;;11.52;57.30;95187.09;5095739;28;20678;-77
2021/03/30 07:44:06;;;;;;;2.03;1.20;;;;;;;11.66;58.75;95189.00;5095755;28;20656;-79
2021/03/30 07:46:34;;;;;;;8.40;2.20;;;;;;;11.84;56.05;95196.56;5095582;28;20251;-78
2021/03/30 07:49:02;;;;;;;8.30;2.20;;;;;;;12.00;56.41;95195.69;5095534;28;20205;-80
2021/03/30 07:51:37;;;;;;;6.27;1.50;;;;;;;12.28;55.49;95184.69;5095516;28;20656;-81
2021/03/30 07:54:11;;;;;;;5.07;1.53;;;;;;;12.53;56.60;95190.53;5095561;28;20236;-80
2021/03/30 07:56:52;;;;;;;7.77;1.83;;;;;;;12.89;55.98;95182.03;5095605;28;20201;-80
2021/03/30 07:59:44;;;;;;;3.13;1.67;;;;;;;13.01;56.33;95182.38;5095390;28;20202;-78
2021/03/30 08:02:14;;;;;;;5.33;1.30;;;;;;;13.18;52.21;95188.25;5095486;28;20205;-79
2021/03/30 08:04:59;;;;;;;4.77;1.63;;;;;;;13.45;51.66;95186.00;5095374;28;20657;-79
2021/03/30 08:07:44;;;;;;;6.97;1.40;;;;;;;13.59;50.34;95187.81;5095293;28;20194;-78
2021/03/30 08:10:30;;;;;;;3.30;1.53;;;;;;;13.84;49.13;95187.47;5095521;28;20208;-78
2021/03/30 08:13:26;;;;;;;5.93;1.27;;;;;;;13.94;52.19;95182.75;5095308;28;20253;-80
2021/03/30 08:15:53;;;;;;;9.73;2.13;;;;;;;14.07;49.14;95193.38;5095145;28;20209;-80
2021/03/30 08:18:23;;;;;;;7.13;1.53;;;;;;;14.20;51.21;95189.25;5094913;28;20537;-78
2021/03/30 08:20:57;;;;;;;2.67;1.33;;;;;;;14.25;49.97;95190.31;5095010;28;20221;-78
2021/03/30 08:23:24;;;;;;;4.60;1.40;;;;;;;14.42;48.37;95185.63;5095075;28;20234;-79
2021/03/30 08:25:52;;;;;;;11.70;1.37;;;;;;;14.49;49.61;95190.94;5094954;28;20202;-79
2021/03/30 08:28:56;;;;;;;9.83;1.67;;;;;;;14.58;47.92;95188.97;5094689;28;20206;-79
2021/03/30 08:31:24;;;;;;;1.77;1.20;;;;;;;14.74;49.90;95185.28;5094977;28;20209;-77
2021/03/30 08:33:54;;;;;;;3.87;1.50;;;;;;;14.93;49.74;95191.69;5094787;28;20258;-79
2021/03/30 08:36:26;;;;;;;4.00;1.63;;;;;;;14.99;47.69;95191.72;5094855;28;20202;-79
2021/03/30 08:38:54;;;;;;;3.93;1.40;;;;;;;15.22;52.04;95185.41;5094618;28;20214;-79
2021/03/30 08:41:49;;;;;;;3.97;1.80;;;;;;;15.27;44.95;95184.78;5094603;28;20439;-78
2021/03/30 08:44:17;;;;;;;2.00;1.30;;;;;;;15.50;41.77;95187.97;5094711;28;20206;-77
2021/03/30 08:46:46;;;;;;;2.57;1.40;;;;;;;15.59;46.55;95185.16;5094578;28;20203;-78
2021/03/30 08:49:28;;;;;;;2.97;1.57;;;;;;;15.90;40.99;95193.41;5094471;28;20205;-77
2021/03/30 08:51:57;;;;;;;4.07;1.60;;;;;;;16.01;35.27;95201.75;5094608;28;20565;-79
2021/03/30 08:54:24;;;;;;;4.43;1.90;;;;;;;16.15;35.66;95184.94;5094590;28;20226;-78
2021/03/30 08:56:51;;;;;;;7.80;1.90;;;;;;;16.22;39.23;95191.06;5094443;28;20236;-78
2021/03/30 08:59:19;;;;;;;5.50;1.83;;;;;;;16.34;38.94;95193.91;5094321;28;20205;-77
2021/03/30 09:01:45;;;;;;;3.03;1.70;;;;;;;16.50;35.64;95197.97;5094223;28;20210;-79
2021/03/30 09:04:12;;;;;;;3.63;1.65;;;;;;;16.51;35.19;95202.22;5094393;28;20205;-78
2021/03/30 09:06:40;;;;;;;3.80;2.03;;;;;;;16.70;35.44;95189.25;5094295;28;20210;-78
2021/03/30 09:09:20;;;;;;;6.32;1.92;;;;;;;16.82;36.36;95195.56;5094278;28;20194;-78
2021/03/30 09:11:46;;;;;;;2.60;2.00;;;;;;;16.73;34.78;95205.47;5094145;28;20201;-78
2021/03/30 09:14:16;;;;;;;5.53;1.92;;;;;;;16.92;39.26;95195.97;5093747;28;20253;-78
2021/03/30 09:16:44;;;;;;;4.47;1.95;;;;;;;16.91;38.31;95198.81;5093435;28;20255;-79
2021/03/30 09:19:19;;;;;;;6.95;2.28;;;;;;;16.83;35.37;95194.53;5093846;28;20206;-79
2021/03/30 09:21:50;;;;;;;9.07;2.13;;;;;;;16.79;34.53;95190.69;5093990;28;20259;-79
2021/03/30 09:24:35;;;;;;;6.32;1.92;;;;;;;16.90;35.49;95198.00;5093925;28;20238;-79
2021/03/30 09:27:02;;;;;;;5.78;1.95;;;;;;;16.98;33.02;95205.69;5094052;28;20293;-78
2021/03/30 09:29:30;;;;;;;4.22;1.83;;;;;;;17.04;34.21;95193.53;5093655;28;20679;-78
2021/03/30 09:31:56;;;;;;;4.35;2.00;;;;;;;16.92;34.08;95189.88;5093853;28;20569;-77
2021/03/30 09:34:24;;;;;;;9.65;2.08;;;;;;;16.91;36.74;95188.28;5093494;28;20283;-75
2021/03/30 09:36:51;;;;;;;11.15;2.00;;;;;;;16.92;32.97;95195.16;5093679;28;20201;-76
2021/03/30 09:39:19;;;;;;;4.35;1.92;;;;;;;16.90;33.74;95190.06;5093156;28;20861;-77
2021/03/30 09:41:48;;;;;;;11.00;1.98;;;;;;;16.82;35.85;95192.91;5093234;28;20599;-75
2021/03/30 09:44:14;;;;;;;3.72;1.85;;;;;;;16.76;36.05;95191.88;5093625;28;20205;-76
2021/03/30 09:46:41;;;;;;;3.17;1.65;;;;;;;16.96;33.80;95197.19;5093436;28;20198;-75
2021/03/30 09:49:09;;;;;;;4.32;1.83;;;;;;;16.98;35.25;95195.13;5093591;28;20204;-77
2021/03/30 09:51:37;;;;;;;3.42;1.73;;;;;;;16.90;36.08;95187.44;5093535;28;20198;-78
2021/03/30 09:54:19;;;;;;;2.17;1.48;;;;;;;16.91;34.31;95185.63;5093140;28;20226;-77
2021/03/30 09:56:45;;;;;;;4.93;1.92;;;;;;;17.06;36.14;95183.56;5093451;28;20206;-77
2021/03/30 09:59:16;;;;;;;1.65;1.40;;;;;;;17.21;33.56;95185.97;5093327;28;20205;-77
2021/03/30 10:01:42;;;;;;;3.72;1.77;;;;;;;17.43;33.51;95185.72;5093432;28;20205;-75
2021/03/30 10:04:10;;;;;;;7.40;1.75;;;;;;;17.50;33.36;95181.22;5093062;28;20198;-75
2021/03/30 10:06:36;;;;;;;2.72;1.60;;;;;;;17.57;35.51;95182.84;5093136;28;20202;-75
2021/03/30 10:09:07;;;;;;;6.13;1.60;;;;;;;17.63;33.66;95180.38;5093297;28;20212;-77
2021/03/30 10:11:34;;;;;;;3.03;1.48;;;;;;;17.58;34.77;95181.00;5093153;28;20212;-77
2021/03/30 10:14:24;;;;;;;3.70;1.70;;;;;;;17.62;34.95;95178.72;5092891;28;20712;-79
2021/03/30 10:16:52;;;;;;;2.92;1.60;;;;;;;17.69;36.46;95176.91;5088985;28;20212;-78
2021/03/30 10:19:19;;;;;;;3.25;1.67;;;;;;;17.83;32.98;95177.63;5092983;28;20201;-78
2021/03/30 10:21:45;;;;;;;4.10;1.40;;;;;;;17.76;32.77;95173.19;5093095;28;20194;-76
2021/03/30 10:24:13;;;;;;;2.80;1.70;;;;;;;17.88;33.50;95168.06;5093055;28;20194;-78
2021/03/30 10:26:40;;;;;;;5.57;1.80;;;;;;;18.03;32.71;95170.44;5091927;28;20530;-77
2021/03/30 10:29:14;;;;;;;3.72;1.80;;;;;;;18.02;32.91;95163.56;5092855;28;20194;-78
2021/03/30 10:31:47;;;;;;;4.57;1.73;;;;;;;18.22;36.04;95162.59;5092995;28;20282;-76
2021/03/30 10:34:24;;;;;;;4.88;1.65;;;;;;;18.34;36.37;95168.03;5092647;28;20256;-78
2021/03/30 10:36:51;;;;;;;2.75;1.50;;;;;;;18.20;32.36;95172.59;5092965;28;20293;-77
2021/03/30 10:39:17;;;;;;;3.15;1.42;;;;;;;18.11;33.28;95174.69;5092909;28;20206;-76
2021/03/30 10:41:45;;;;;;;6.53;1.63;;;;;;;18.10;34.07;95165.94;5092601;28;20285;-78
2021/03/30 10:44:17;;;;;;;3.05;1.40;;;;;;;18.17;33.34;95165.06;5092943;28;20205;-78
2021/03/30 10:46:44;;;;;;;1.63;1.20;;;;;;;18.09;32.65;95164.31;5092963;28;20205;-77
2021/03/30 10:49:12;;;;;;;4.13;1.65;;;;;;;18.16;31.86;95168.75;5092925;28;20281;-78
2021/03/30 10:51:42;;;;;;;4.15;1.63;;;;;;;18.05;30.54;95159.66;5092872;28;20560;-78
2021/03/30 10:54:19;;;;;;;6.45;1.60;;;;;;;18.22;30.11;95157.31;5096069;28;20221;-79
2021/03/30 10:56:46;;;;;;;5.10;2.05;;;;;;;18.39;31.93;95157.63;5096884;28;20235;-77
2021/03/30 10:59:16;;;;;;;5.13;1.80;;;;;;;18.73;35.89;95152.88;5096684;28;20293;-78
2021/03/30 11:01:43;;;;;;;7.10;1.90;;;;;;;18.52;31.60;95157.53;5096534;28;20201;-77
2021/03/30 11:04:12;;;;;;;3.28;1.67;;;;;;;18.54;32.88;95154.66;5096690;28;20205;-77
2021/03/30 11:06:38;;;;;;;4.88;1.85;;;;;;;18.42;30.32;95151.91;5096551;28;20208;-77
2021/03/30 11:09:05;;;;;;;2.85;1.65;;;;;;;18.37;33.77;95146.44;5096558;28;20218;-77
2021/03/30 11:11:39;;;;;;;3.15;1.33;;;;;;;18.59;32.88;95146.88;5096544;28;20292;-77
2021/03/30 11:14:06;;;;;;;12.02;2.00;;;;;;;18.63;31.02;95137.47;5096370;28;20317;-78
2021/03/30 11:16:32;;;;;;;8.13;2.00;;;;;;;18.74;33.81;95144.72;5095860;28;20403;-78
2021/03/30 11:19:01;;;;;;;3.47;1.70;;;;;;;18.69;30.81;95136.63;5096207;28;20198;-78
2021/03/30 11:21:27;;;;;;;8.70;1.90;;;;;;;18.78;31.00;95135.31;5096119;28;20202;-77
2021/03/30 11:23:59;;;;;;;5.10;1.70;;;;;;;18.97;29.31;95138.03;5096278;28;20672;-79
2021/03/30 11:26:25;;;;;;;9.43;1.40;;;;;;;18.92;31.93;95132.56;5096279;28;20198;-79
2021/03/30 11:28:52;;;;;;;3.90;1.63;;;;;;;19.21;33.49;95123.91;5096523;28;20206;-78
2021/03/30 11:31:44;;;;;;;4.32;1.65;;;;;;;19.22;33.40;95128.19;5096059;28;20255;-78
2021/03/30 11:34:15;;;;;;;3.20;1.77;;;;;;;19.05;31.42;95127.13;5096135;28;20233;-77
2021/03/30 11:36:44;;;;;;;5.60;1.60;;;;;;;19.07;32.00;95116.31;5095842;28;20721;-77
2021/03/30 11:39:12;;;;;;;3.90;1.75;;;;;;;19.03;32.59;95114.13;5096037;28;20568;-76
2021/03/30 11:41:40;;;;;;;3.70;1.35;;;;;;;19.09;31.33;95115.09;5095601;28;20198;-78
2021/03/30 11:44:12;;;;;;;6.53;1.83;;;;;;;19.09;32.89;95117.72;5095666;28;20236;-78
2021/03/30 11:46:39;;;;;;;3.88;1.40;;;;;;;19.17;28.64;95112.16;5096010;28;20210;-77
2021/03/30 11:49:05;;;;;;;7.80;1.63;;;;;;;19.12;29.94;95114.66;5095718;28;20645;-77
2021/03/30 11:51:34;;;;;;;4.40;1.70;;;;;;;19.13;27.50;95107.50;5095736;28;20289;-77